Time;durP1;ratioP1;P1;durP2;ratioP2;P2;SDS_P1;SDS_P2;PMS_P1;PMS_P2;Temp;Humidity;BMP_temperature;BMP_pressure;BME280_temperature;BME280_humidity;BME280_pressure;Samples;Min_cycle;Max_cycle;Signal;HPM_P1;HPM_P2
2023/12/03 00:00:57;;;;;;;3.55;3.25;;;-3.00;99.90;;;;;;5093256;28;20230;-73
2023/12/03 00:03:25;;;;;;;7.50;4.05;;;-3.00;99.90;;;;;;5093458;28;20196;-73
2023/12/03 00:05:51;;;;;;;4.13;3.25;;;-3.00;99.90;;;;;;5093119;28;20211;-73
2023/12/03 00:08:18;;;;;;;5.10;3.83;;;-3.00;99.90;;;;;;5092841;28;20680;-73
2023/12/03 00:10:45;;;;;;;3.65;2.72;;;-3.00;99.90;;;;;;5093317;28;20215;-73
2023/12/03 00:13:13;;;;;;;5.60;4.35;;;-3.00;99.90;;;;;;5093004;28;20216;-73
2023/12/03 04:31:36;;;;;;;6.55;2.97;;;-4.10;99.90;;;;;;5666823;22;20310;-94
2023/12/03 04:34:03;;;;;;;7.95;3.40;;;-4.20;99.90;;;;;;5059999;28;20290;-92
2023/12/03 04:36:30;;;;;;;3.80;3.33;;;-4.30;99.90;;;;;;5064933;28;20219;-93
2023/12/03 04:38:57;;;;;;;6.50;4.10;;;-4.40;99.90;;;;;;5064628;28;20197;-89
2023/12/03 04:41:27;;;;;;;5.97;2.83;;;-4.50;99.90;;;;;;5064720;28;20225;-90
2023/12/03 04:43:55;;;;;;;5.65;3.25;;;-4.60;99.90;;;;;;5063332;28;20231;-90
2023/12/03 04:46:22;;;;;;;4.35;2.95;;;-4.70;99.90;;;;;;5057996;28;20198;-90
2023/12/03 04:48:50;;;;;;;2.55;2.33;;;-4.80;99.90;;;;;;5051011;28;20213;-89
2023/12/03 04:51:18;;;;;;;7.68;3.20;;;-4.90;99.90;;;;;;5061887;28;20225;-90
2023/12/03 04:53:44;;;;;;;2.63;2.47;;;-5.00;99.90;;;;;;5061227;28;20221;-90
2023/12/03 04:56:12;;;;;;;4.90;3.20;;;-5.10;99.90;;;;;;5022599;28;20202;-92
2023/12/03 04:58:38;;;;;;;5.72;2.85;;;-5.20;99.90;;;;;;5021752;28;20206;-93
2023/12/03 05:01:06;;;;;;;3.63;2.42;;;-5.20;99.90;;;;;;5021995;28;20246;-90
2023/12/03 05:03:33;;;;;;;4.50;2.95;;;-5.20;99.90;;;;;;5034182;28;20209;-90
2023/12/03 05:06:01;;;;;;;3.10;2.85;;;-5.40;99.90;;;;;;5051467;28;20284;-90
2023/12/03 05:08:28;;;;;;;3.25;2.40;;;-5.40;99.90;;;;;;5042585;28;20298;-89
2023/12/03 05:10:55;;;;;;;3.88;2.83;;;-5.40;99.90;;;;;;5043625;28;20313;-89
2023/12/03 05:13:22;;;;;;;3.40;2.88;;;-5.50;99.90;;;;;;5044406;28;20316;-90
2023/12/03 05:15:49;;;;;;;2.83;2.15;;;-5.50;99.90;;;;;;5073716;28;20205;-89
2023/12/03 05:18:20;;;;;;;7.22;4.45;;;-5.60;99.90;;;;;;5048319;28;20209;-91
2023/12/03 05:20:47;;;;;;;7.53;2.95;;;-5.70;99.90;;;;;;5038624;28;20273;-89
2023/12/03 05:23:15;;;;;;;3.58;3.28;;;-5.80;99.90;;;;;;5038992;28;20226;-89
2023/12/03 05:25:42;;;;;;;2.75;2.55;;;-5.90;99.90;;;;;;5055535;28;20209;-89
2023/12/03 05:28:09;;;;;;;3.67;3.38;;;-5.90;99.90;;;;;;5048275;28;20233;-89
2023/12/03 05:30:42;;;;;;;2.60;2.40;;;-5.90;99.90;;;;;;5056520;28;20212;-89
2023/12/03 05:33:08;;;;;;;1.90;1.70;;;-6.00;99.90;;;;;;5047020;28;20236;-91
2023/12/03 05:35:36;;;;;;;4.22;3.40;;;-6.00;99.90;;;;;;5060333;28;20215;-89
2023/12/03 05:38:04;;;;;;;2.70;2.42;;;-6.10;99.90;;;;;;5069840;28;20280;-89
2023/12/03 05:40:33;;;;;;;3.45;2.83;;;-6.20;99.90;;;;;;5060904;28;20232;-89
2023/12/03 05:43:00;;;;;;;3.20;3.00;;;-6.20;99.90;;;;;;5053749;28;20206;-89
2023/12/03 05:45:27;;;;;;;2.60;1.58;;;-6.20;99.90;;;;;;5053728;28;20278;-89
2023/12/03 05:47:54;;;;;;;2.85;2.38;;;-6.20;99.90;;;;;;5054683;28;20226;-90
2023/12/03 05:50:21;;;;;;;2.00;1.73;;;-6.30;99.90;;;;;;5053794;28;20202;-90
2023/12/03 05:52:48;;;;;;;2.80;2.50;;;-6.40;99.90;;;;;;5061654;28;20268;-89
2023/12/03 05:55:16;;;;;;;2.10;1.90;;;-6.40;99.90;;;;;;5069871;28;20277;-91
2023/12/03 05:57:43;;;;;;;3.05;2.30;;;-6.40;99.90;;;;;;5063764;28;20211;-91
2023/12/03 06:00:11;;;;;;;2.97;2.40;;;-6.30;99.90;;;;;;5055742;28;20205;-91
2023/12/03 06:02:38;;;;;;;5.20;2.95;;;-6.00;99.90;;;;;;5052124;28;20217;-91
2023/12/03 06:05:06;;;;;;;1.85;1.70;;;-6.10;99.90;;;;;;5047957;28;20220;-90
2023/12/03 06:07:33;;;;;;;5.78;2.78;;;-6.10;99.90;;;;;;5057188;28;20229;-91
2023/12/03 06:10:00;;;;;;;2.83;2.50;;;-6.30;99.90;;;;;;5059724;28;20212;-91
2023/12/03 06:12:27;;;;;;;3.92;3.47;;;-6.40;99.90;;;;;;5056175;28;20240;-93
2023/12/03 06:14:57;;;;;;;4.10;2.20;;;-6.50;99.90;;;;;;5058210;28;20233;-92
2023/12/03 06:17:24;;;;;;;2.17;1.90;;;-6.60;99.90;;;;;;5051720;28;20205;-94
2023/12/03 06:19:51;;;;;;;1.80;1.70;;;-6.70;99.90;;;;;;5046741;22;20243;-71
2023/12/03 06:22:18;;;;;;;2.83;2.63;;;-6.70;99.90;;;;;;5019082;28;20225;-71
2023/12/03 06:24:45;;;;;;;7.60;3.40;;;-6.80;99.90;;;;;;5015319;28;20207;-72
2023/12/03 06:27:11;;;;;;;1.90;1.35;;;-6.80;99.90;;;;;;5007149;28;20206;-71
2023/12/03 06:29:38;;;;;;;9.95;3.72;;;-6.80;99.90;;;;;;5011747;28;20678;-72
2023/12/03 06:32:06;;;;;;;2.05;1.95;;;-6.80;99.90;;;;;;5011250;28;20602;-71
2023/12/03 06:34:33;;;;;;;2.65;2.45;;;-6.80;99.90;;;;;;5011360;28;20225;-71
2023/12/03 06:37:00;;;;;;;4.18;2.90;;;-6.60;99.90;;;;;;5011046;28;20304;-72
2023/12/03 06:39:26;;;;;;;5.72;3.13;;;-6.50;99.90;;;;;;5011711;28;20674;-71
2023/12/03 06:41:53;;;;;;;4.03;3.30;;;-6.50;99.90;;;;;;5011285;28;20218;-71
2023/12/03 06:44:20;;;;;;;2.80;2.60;;;-6.60;99.90;;;;;;5014339;28;20199;-71
2023/12/03 06:46:46;;;;;;;2.30;1.50;;;-6.60;99.90;;;;;;5010945;28;20220;-69
2023/12/03 06:49:14;;;;;;;3.05;2.85;;;-6.70;99.90;;;;;;5011245;28;20205;-74
2023/12/03 06:51:41;;;;;;;2.55;1.92;;;-6.70;99.90;;;;;;5011316;28;20218;-73
2023/12/03 06:54:08;;;;;;;5.18;4.68;;;-6.70;99.90;;;;;;5011341;28;20710;-72
2023/12/03 06:56:34;;;;;;;5.75;2.05;;;-6.80;99.90;;;;;;5010703;28;20202;-73
2023/12/03 06:59:02;;;;;;;5.10;4.03;;;-6.80;99.90;;;;;;5010531;28;20207;-72
2023/12/03 07:01:29;;;;;;;2.75;2.05;;;-6.80;99.90;;;;;;5010845;28;20231;-73
2023/12/03 07:03:55;;;;;;;1.63;1.52;;;-6.80;99.90;;;;;;5010138;28;20209;-72
2023/12/03 07:06:24;;;;;;;2.55;2.05;;;-6.80;99.90;;;;;;5010610;28;20203;-73
2023/12/03 07:08:51;;;;;;;2.97;2.22;;;-6.80;99.90;;;;;;5010012;28;20257;-73
2023/12/03 07:11:18;;;;;;;2.85;2.65;;;-6.80;99.90;;;;;;5011259;28;20258;-73
2023/12/03 07:13:44;;;;;;;3.53;2.53;;;-6.80;99.90;;;;;;5012684;28;20238;-74
2023/12/03 07:16:11;;;;;;;3.65;2.92;;;-6.80;99.90;;;;;;5010967;28;20206;-74
2023/12/03 07:18:42;;;;;;;4.53;2.75;;;-6.80;99.90;;;;;;5010722;28;20202;-75
2023/12/03 07:21:10;;;;;;;6.82;3.65;;;-6.80;99.90;;;;;;5011175;28;20254;-74
2023/12/03 07:23:38;;;;;;;2.83;2.63;;;-6.80;99.90;;;;;;5011013;28;20253;-74
2023/12/03 07:26:09;;;;;;;2.95;1.80;;;-6.80;99.90;;;;;;5011074;28;20633;-73
2023/12/03 07:28:36;;;;;;;5.53;4.35;;;-6.70;99.90;;;;;;5010788;28;20229;-74
2023/12/03 07:31:03;;;;;;;4.07;2.95;;;-6.70;99.90;;;;;;5010981;28;20230;-74
2023/12/03 07:33:30;;;;;;;3.58;3.28;;;-6.70;99.90;;;;;;5011131;28;20229;-74
2023/12/03 07:35:57;;;;;;;2.03;1.83;;;-6.70;99.90;;;;;;5010572;28;20682;-74
2023/12/03 07:38:24;;;;;;;4.82;2.38;;;-6.70;99.90;;;;;;5012294;28;20584;-73
2023/12/03 07:40:52;;;;;;;3.17;2.05;;;-6.80;99.90;;;;;;5010878;28;20226;-73
2023/12/03 07:43:19;;;;;;;3.80;2.00;;;-6.80;99.90;;;;;;5010835;28;20207;-74
2023/12/03 07:45:45;;;;;;;4.43;2.33;;;-6.70;99.90;;;;;;5014210;28;20207;-73
2023/12/03 07:48:12;;;;;;;5.63;3.72;;;-6.70;99.90;;;;;;5007415;28;20202;-72
2023/12/03 07:50:39;;;;;;;6.85;1.85;;;-6.70;99.90;;;;;;5014219;28;20638;-74
2023/12/03 07:53:06;;;;;;;3.75;2.33;;;-6.50;99.90;;;;;;5016710;28;20230;-73
2023/12/03 07:55:33;;;;;;;3.30;3.10;;;-6.20;99.90;;;;;;5019826;28;20203;-73
2023/12/03 07:58:01;;;;;;;2.17;1.42;;;-6.00;99.90;;;;;;5013793;28;20258;-73
2023/12/03 08:00:27;;;;;;;4.53;3.85;;;-5.60;99.90;;;;;;5014044;28;20293;-73
2023/12/03 08:02:54;;;;;;;4.40;4.10;;;-4.90;99.90;;;;;;5013980;28;20680;-73
2023/12/03 08:05:21;;;;;;;3.92;2.72;;;-4.00;99.90;;;;;;5014326;28;20221;-73
2023/12/03 08:07:48;;;;;;;4.82;4.47;;;-3.00;99.90;;;;;;5013471;28;20218;-74
2023/12/03 08:10:15;;;;;;;5.95;4.50;;;-2.10;99.90;;;;;;5014019;28;20209;-73
2023/12/03 08:12:41;;;;;;;5.68;3.72;;;-1.50;99.90;;;;;;5013990;28;20206;-73
2023/12/03 08:15:09;;;;;;;9.88;5.10;;;-1.30;99.90;;;;;;5013606;28;20223;-74
2023/12/03 08:17:36;;;;;;;3.97;3.65;;;-1.20;99.90;;;;;;5013579;28;20238;-75
2023/12/03 08:20:05;;;;;;;5.57;3.75;;;-0.90;99.90;;;;;;5013261;28;20209;-73
2023/12/03 08:22:32;;;;;;;6.82;3.42;;;-0.50;99.90;;;;;;5013887;28;20253;-73
2023/12/03 08:24:58;;;;;;;8.32;4.13;;;0.00;99.90;;;;;;5013393;28;20203;-73
2023/12/03 08:27:25;;;;;;;6.13;3.70;;;0.50;99.90;;;;;;5013341;28;20213;-73
2023/12/03 08:29:52;;;;;;;6.82;4.15;;;0.90;99.90;;;;;;5013257;28;20218;-73
2023/12/03 08:32:20;;;;;;;5.18;3.80;;;1.30;99.90;;;;;;5013491;28;20222;-74
2023/12/03 08:34:47;;;;;;;4.72;3.88;;;1.50;99.90;;;;;;5013040;28;20329;-73
2023/12/03 08:37:14;;;;;;;5.43;3.97;;;1.60;99.90;;;;;;5013368;28;20229;-73
2023/12/03 08:39:41;;;;;;;7.93;4.35;;;1.80;99.90;;;;;;5013311;28;20281;-72
2023/12/03 08:42:08;;;;;;;6.55;4.20;;;1.90;99.90;;;;;;5013000;28;20230;-73
2023/12/03 08:44:35;;;;;;;8.00;3.92;;;1.90;99.90;;;;;;5013248;28;20561;-74
2023/12/03 08:47:01;;;;;;;6.88;4.50;;;1.90;99.90;;;;;;5012531;28;20238;-73
2023/12/03 08:49:29;;;;;;;6.70;4.50;;;2.00;99.90;;;;;;5013553;28;20206;-74
2023/12/03 08:51:56;;;;;;;4.20;3.55;;;1.90;99.90;;;;;;5012886;28;20705;-74
2023/12/03 08:54:23;;;;;;;9.30;5.70;;;1.70;99.90;;;;;;5012751;28;20634;-73
2023/12/03 08:56:49;;;;;;;8.80;4.63;;;1.40;99.90;;;;;;5012472;28;20202;-73
2023/12/03 08:59:16;;;;;;;5.05;3.55;;;1.20;99.90;;;;;;5013201;28;20209;-73
2023/12/03 09:01:43;;;;;;;6.18;3.95;;;0.90;99.90;;;;;;5012798;28;20222;-73
2023/12/03 09:04:10;;;;;;;5.95;4.55;;;0.70;99.90;;;;;;5012812;28;20206;-73
2023/12/03 09:06:38;;;;;;;5.07;4.03;;;0.30;99.90;;;;;;5012396;28;20638;-74
2023/12/03 09:09:05;;;;;;;5.50;4.25;;;0.30;99.90;;;;;;5011699;28;20237;-73
2023/12/03 09:11:32;;;;;;;7.50;4.80;;;0.60;99.90;;;;;;5012557;28;20218;-74
2023/12/03 09:13:59;;;;;;;6.88;4.35;;;1.90;99.90;;;;;;5012217;28;20252;-74
2023/12/03 09:16:25;;;;;;;5.82;4.57;;;2.90;99.90;;;;;;5012284;28;20203;-74
2023/12/03 09:18:52;;;;;;;7.30;4.45;;;4.00;99.90;;;;;;5011708;28;20592;-74
2023/12/03 09:21:19;;;;;;;8.25;5.47;;;5.80;99.90;;;;;;5012734;28;20678;-73
2023/12/03 09:23:48;;;;;;;6.90;4.47;;;8.10;99.90;;;;;;5012079;28;20202;-73
2023/12/03 09:26:16;;;;;;;6.47;4.57;;;10.30;98.70;;;;;;5004903;28;20213;-74
2023/12/03 09:28:42;;;;;;;6.25;4.93;;;12.10;95.30;;;;;;5012067;28;20306;-74
2023/12/03 09:31:09;;;;;;;5.72;4.65;;;13.30;94.10;;;;;;5011804;28;20234;-74
2023/12/03 09:33:36;;;;;;;6.43;5.20;;;14.10;92.50;;;;;;5012544;28;20245;-75
2023/12/03 09:36:03;;;;;;;7.68;5.13;;;15.00;91.40;;;;;;5012895;28;20232;-76
2023/12/03 09:38:30;;;;;;;6.38;4.60;;;15.90;89.90;;;;;;5012580;28;20209;-75
2023/12/03 09:41:05;;;;;;;8.60;5.47;;;15.20;86.50;;;;;;5012880;28;20622;-75
2023/12/03 09:43:37;;;;;;;8.15;5.97;;;15.50;87.70;;;;;;5012745;28;20263;-74
2023/12/03 09:46:12;;;;;;;9.23;5.32;;;14.80;86.10;;;;;;5012652;28;20548;-74
2023/12/03 09:48:42;;;;;;;6.57;5.80;;;14.80;87.20;;;;;;5012739;28;20220;-75
2023/12/03 09:51:10;;;;;;;5.45;4.93;;;15.30;86.60;;;;;;5012732;28;20231;-75
2023/12/03 09:53:42;;;;;;;6.30;4.80;;;15.90;87.00;;;;;;5013126;28;20229;-75
2023/12/03 09:56:12;;;;;;;8.20;5.13;;;16.30;86.30;;;;;;5012602;28;20462;-74
2023/12/03 09:58:39;;;;;;;6.30;5.70;;;16.90;85.00;;;;;;5012136;28;20950;-75
2023/12/03 10:01:07;;;;;;;6.63;5.17;;;17.90;82.20;;;;;;5012623;28;20485;-74
2023/12/03 10:03:33;;;;;;;6.83;5.43;;;17.90;80.00;;;;;;5013029;28;20483;-75
2023/12/03 10:06:00;;;;;;;6.67;5.20;;;17.80;82.80;;;;;;5011521;28;20944;-74
2023/12/03 10:08:28;;;;;;;5.87;4.37;;;17.70;80.90;;;;;;5011346;28;20474;-74
2023/12/03 10:10:59;;;;;;;5.53;4.90;;;18.30;81.40;;;;;;5012233;28;20492;-74
2023/12/03 10:13:28;;;;;;;5.13;4.60;;;17.70;78.40;;;;;;5012652;28;20501;-74
2023/12/03 10:15:55;;;;;;;7.20;5.43;;;17.10;78.90;;;;;;5003986;28;20487;-74
2023/12/03 10:18:22;;;;;;;8.40;5.47;;;16.50;80.40;;;;;;5011773;28;20501;-74
2023/12/03 10:20:49;;;;;;;6.27;4.80;;;16.20;80.20;;;;;;5011993;28;20487;-72
2023/12/03 10:23:18;;;;;;;6.10;5.10;;;16.30;78.60;;;;;;5011686;28;20462;-74
2023/12/03 10:25:45;;;;;;;5.03;4.18;;;15.20;78.50;;;;;;5012018;28;20527;-73
2023/12/03 10:28:11;;;;;;;6.07;5.18;;;13.80;81.00;;;;;;5011224;28;20206;-73
2023/12/03 10:30:41;;;;;;;6.27;4.57;;;14.20;81.90;;;;;;5012262;28;20296;-75
2023/12/03 10:33:11;;;;;;;7.37;4.60;;;14.20;82.80;;;;;;5012315;28;20501;-75
2023/12/03 10:35:38;;;;;;;6.23;4.90;;;14.70;81.20;;;;;;5011922;28;20572;-75
2023/12/03 10:38:06;;;;;;;5.93;4.27;;;16.00;82.00;;;;;;5011212;28;20484;-75
2023/12/03 10:40:33;;;;;;;6.27;4.17;;;16.40;80.00;;;;;;5011618;28;20467;-76
2023/12/03 10:43:01;;;;;;;4.97;4.47;;;16.20;79.40;;;;;;5011763;28;20954;-73
2023/12/03 10:45:28;;;;;;;5.10;4.57;;;17.00;81.60;;;;;;5012106;28;20463;-76
2023/12/03 10:47:59;;;;;;;5.73;4.67;;;17.60;80.70;;;;;;5011982;28;20468;-74
2023/12/03 10:50:27;;;;;;;6.23;5.10;;;17.60;77.40;;;;;;5012330;28;20475;-75
2023/12/03 10:52:54;;;;;;;5.53;4.80;;;17.30;79.80;;;;;;5012888;28;20466;-75
2023/12/03 10:55:21;;;;;;;7.10;5.40;;;17.90;80.50;;;;;;5011620;28;20993;-75
2023/12/03 10:57:56;;;;;;;5.00;4.50;;;18.30;79.10;;;;;;5011881;28;20472;-75
2023/12/03 11:00:25;;;;;;;7.33;4.87;;;18.10;76.20;;;;;;5005564;28;20474;-75
2023/12/03 11:03:00;;;;;;;8.07;5.03;;;17.60;76.60;;;;;;5011965;28;20464;-75
2023/12/03 11:05:34;;;;;;;6.90;5.40;;;16.50;79.10;;;;;;5005943;28;20477;-75
2023/12/03 11:08:03;;;;;;;5.83;5.10;;;16.70;77.70;;;;;;5011165;28;20486;-75
2023/12/03 11:10:30;;;;;;;7.00;4.90;;;16.00;78.50;;;;;;5011824;28;20552;-74
2023/12/03 11:13:00;;;;;;;6.77;5.07;;;15.80;76.20;;;;;;5011561;28;20463;-74
2023/12/03 11:15:27;;;;;;;7.07;4.80;;;15.50;77.60;;;;;;5011903;28;20860;-75
2023/12/03 11:17:54;;;;;;;5.05;4.30;;;14.20;80.20;;;;;;5011655;28;20475;-74
2023/12/03 11:20:28;;;;;;;5.43;4.93;;;13.50;80.20;;;;;;5014873;28;20217;-74
2023/12/03 11:23:08;;;;;;;6.28;4.40;;;12.40;82.70;;;;;;5014843;28;20213;-74
2023/12/03 11:25:36;;;;;;;5.30;4.80;;;10.60;85.30;;;;;;5012074;28;20211;-74
2023/12/03 11:28:03;;;;;;;7.43;4.60;;;9.30;88.90;;;;;;5011426;28;20686;-74
2023/12/03 11:30:37;;;;;;;7.78;4.65;;;8.30;90.40;;;;;;5013963;28;20583;-74
2023/12/03 11:33:07;;;;;;;5.43;4.88;;;7.80;91.40;;;;;;5013571;28;20214;-74
2023/12/03 11:35:35;;;;;;;5.70;4.25;;;7.40;92.20;;;;;;5009538;28;20297;-75
2023/12/03 11:38:02;;;;;;;5.30;4.72;;;7.00;92.50;;;;;;5011917;28;20213;-73
2023/12/03 11:40:34;;;;;;;5.65;4.18;;;6.20;93.30;;;;;;5013659;28;20209;-75
2023/12/03 11:43:01;;;;;;;5.30;3.95;;;5.20;94.30;;;;;;5013570;28;20279;-74
2023/12/03 11:45:29;;;;;;;7.57;3.85;;;4.70;96.10;;;;;;5013802;28;20256;-74
2023/12/03 11:48:05;;;;;;;6.00;4.80;;;4.60;96.60;;;;;;5013898;28;20214;-74
2023/12/03 11:50:32;;;;;;;5.35;4.55;;;4.90;96.80;;;;;;5014008;28;20210;-73
2023/12/03 11:53:00;;;;;;;5.40;3.58;;;5.00;95.50;;;;;;5013703;28;20654;-74
2023/12/03 11:55:27;;;;;;;3.72;3.20;;;4.60;96.50;;;;;;5007308;28;20228;-74
2023/12/03 11:57:55;;;;;;;5.18;4.05;;;4.60;96.80;;;;;;5014407;28;20210;-74
2023/12/03 12:00:24;;;;;;;6.10;4.30;;;4.30;97.30;;;;;;5014398;28;20234;-74
2023/12/03 12:02:51;;;;;;;7.97;3.35;;;4.30;98.10;;;;;;5013934;28;20781;-73
2023/12/03 12:05:18;;;;;;;5.40;4.45;;;3.90;97.00;;;;;;5013586;28;20211;-74
2023/12/03 12:07:56;;;;;;;5.93;3.75;;;3.70;98.00;;;;;;5013701;28;20207;-74
2023/12/03 12:10:25;;;;;;;5.35;3.92;;;3.50;97.90;;;;;;5013439;28;20209;-73
2023/12/03 12:12:52;;;;;;;4.72;4.00;;;3.30;98.30;;;;;;5013943;28;20215;-73
2023/12/03 12:15:19;;;;;;;3.50;3.20;;;3.20;99.00;;;;;;5013107;28;20605;-74
2023/12/03 12:17:45;;;;;;;4.20;3.35;;;2.90;99.80;;;;;;5013308;28;20208;-74
2023/12/03 12:20:12;;;;;;;7.18;4.15;;;2.80;99.90;;;;;;5011935;28;20203;-74
2023/12/03 12:22:39;;;;;;;4.72;3.17;;;2.90;99.90;;;;;;5014234;28;20208;-74
2023/12/03 12:25:08;;;;;;;5.78;3.15;;;2.60;99.90;;;;;;5014208;28;20207;-74
2023/12/03 12:27:36;;;;;;;4.60;3.78;;;2.40;99.90;;;;;;5014461;28;20198;-75
2023/12/03 12:30:04;;;;;;;5.72;3.72;;;2.50;99.90;;;;;;5013731;28;20207;-72
2023/12/03 12:32:31;;;;;;;3.97;2.65;;;2.80;99.90;;;;;;5014776;28;20223;-74
2023/12/03 12:35:01;;;;;;;3.95;3.25;;;2.70;99.90;;;;;;5013451;28;20230;-74
2023/12/03 12:37:28;;;;;;;4.88;3.60;;;2.50;99.90;;;;;;5012514;28;20206;-73
2023/12/03 12:40:07;;;;;;;8.50;3.65;;;2.30;99.90;;;;;;5013487;28;20206;-74
2023/12/03 12:42:34;;;;;;;5.65;4.30;;;2.30;99.90;;;;;;5007921;28;20238;-74
2023/12/03 12:45:03;;;;;;;6.97;4.30;;;2.20;99.90;;;;;;5012871;28;20693;-74
2023/12/03 12:47:39;;;;;;;7.15;4.65;;;2.00;99.90;;;;;;5007540;28;20209;-74
2023/12/03 12:50:07;;;;;;;5.68;3.85;;;1.80;99.90;;;;;;5013127;28;20682;-73
2023/12/03 12:52:35;;;;;;;6.82;4.32;;;1.70;99.90;;;;;;5013440;28;20233;-73
2023/12/03 12:55:04;;;;;;;4.18;2.97;;;1.60;99.90;;;;;;5013286;28;20289;-73
2023/12/03 12:57:31;;;;;;;5.15;3.67;;;1.70;99.90;;;;;;5012487;28;20301;-74
2023/12/03 12:59:57;;;;;;;4.03;3.55;;;1.60;99.90;;;;;;5007804;28;20260;-73
2023/12/03 13:02:26;;;;;;;3.38;2.85;;;1.50;99.90;;;;;;5012858;28;20706;-74
2023/12/03 13:04:53;;;;;;;4.18;3.78;;;1.20;99.90;;;;;;5013459;28;20202;-74
2023/12/03 13:07:19;;;;;;;4.55;3.00;;;1.30;99.90;;;;;;5012656;28;20211;-74
2023/12/03 13:09:46;;;;;;;3.67;2.83;;;1.30;99.90;;;;;;5013179;28;20202;-74
2023/12/03 13:12:13;;;;;;;5.57;2.92;;;1.10;99.90;;;;;;5010432;28;20226;-73
2023/12/03 13:14:40;;;;;;;4.55;3.40;;;1.10;99.90;;;;;;5013249;28;20209;-73
2023/12/03 13:17:07;;;;;;;4.53;3.28;;;1.40;99.90;;;;;;5012741;28;20895;-74
2023/12/03 13:19:35;;;;;;;4.50;3.10;;;1.90;99.90;;;;;;5012622;28;20202;-74
2023/12/03 13:22:02;;;;;;;4.05;2.70;;;2.60;99.90;;;;;;5012685;28;20230;-74
2023/12/03 13:24:29;;;;;;;4.22;3.70;;;3.20;99.90;;;;;;5012269;28;20210;-74
2023/12/03 13:26:56;;;;;;;5.25;3.60;;;3.40;99.90;;;;;;5011931;28;20206;-73
2023/12/03 13:29:22;;;;;;;4.50;3.53;;;3.20;99.90;;;;;;5011984;28;20210;-74
2023/12/03 13:31:49;;;;;;;7.85;3.78;;;2.50;99.90;;;;;;5012357;28;20237;-73
2023/12/03 13:34:16;;;;;;;3.13;2.50;;;2.10;99.90;;;;;;5012116;28;20566;-74
2023/12/03 13:36:44;;;;;;;4.45;2.95;;;1.40;99.90;;;;;;5012006;28;20221;-74
2023/12/03 13:39:10;;;;;;;3.03;2.75;;;1.10;99.90;;;;;;5011988;28;20203;-74
2023/12/03 13:41:38;;;;;;;3.45;2.30;;;0.60;99.90;;;;;;5010957;28;20226;-74
2023/12/03 13:44:05;;;;;;;6.57;4.13;;;0.20;99.90;;;;;;5012377;28;20213;-74
2023/12/03 13:46:32;;;;;;;4.25;2.50;;;0.00;99.90;;;;;;5011868;28;20198;-73
2023/12/03 13:48:59;;;;;;;3.53;2.95;;;-0.20;99.90;;;;;;5011930;28;20233;-74
2023/12/03 13:51:26;;;;;;;3.90;3.20;;;-0.30;99.90;;;;;;5011573;28;20249;-74
2023/12/03 13:53:54;;;;;;;3.97;3.03;;;-0.30;99.90;;;;;;5012122;28;20206;-75
2023/12/03 13:56:21;;;;;;;5.40;2.78;;;-0.40;99.90;;;;;;5011597;28;20227;-74
2023/12/03 13:58:48;;;;;;;3.03;2.70;;;-0.50;99.90;;;;;;5011788;28;20222;-74
2023/12/03 14:01:15;;;;;;;3.65;3.08;;;-0.60;99.90;;;;;;5011846;28;20729;-73
2023/12/03 14:03:42;;;;;;;4.30;3.25;;;-0.60;99.90;;;;;;5012347;28;20206;-74
2023/12/03 14:06:10;;;;;;;4.90;3.08;;;-0.60;99.90;;;;;;5011847;28;20210;-74
2023/12/03 14:08:37;;;;;;;7.90;4.43;;;-0.60;99.90;;;;;;5011486;28;20233;-74
2023/12/03 14:11:07;;;;;;;5.22;3.95;;;-0.70;99.90;;;;;;5012018;28;20707;-75
2023/12/03 14:13:35;;;;;;;3.85;3.30;;;-0.70;99.90;;;;;;5011703;28;20210;-74
2023/12/03 14:16:02;;;;;;;2.80;2.55;;;-0.80;99.90;;;;;;5011959;28;20288;-75
2023/12/03 14:18:29;;;;;;;6.32;3.10;;;-0.80;99.90;;;;;;5012554;28;20214;-75
2023/12/03 14:20:56;;;;;;;4.05;3.47;;;-0.80;99.90;;;;;;5012613;28;20230;-74
2023/12/03 14:23:22;;;;;;;3.47;2.40;;;-0.80;99.90;;;;;;5011960;28;20218;-74
2023/12/03 14:25:49;;;;;;;5.10;3.85;;;-0.80;99.90;;;;;;5011126;28;20202;-75
2023/12/03 14:28:17;;;;;;;6.15;3.65;;;-0.90;99.90;;;;;;5011051;28;20206;-74
2023/12/03 14:30:44;;;;;;;4.43;2.97;;;-0.90;99.90;;;;;;5011546;28;20222;-74
2023/12/03 14:33:11;;;;;;;5.32;3.50;;;-0.90;99.90;;;;;;5011246;28;20207;-74
2023/12/03 14:35:38;;;;;;;4.78;2.75;;;-0.90;99.90;;;;;;5010961;28;20218;-73
2023/12/03 14:38:05;;;;;;;4.82;3.35;;;-1.00;99.90;;;;;;5010769;28;20209;-74
2023/12/03 14:40:32;;;;;;;5.75;3.03;;;-1.10;99.90;;;;;;5010944;28;20210;-74
2023/12/03 14:42:58;;;;;;;4.82;3.80;;;-1.10;99.90;;;;;;5011396;28;20214;-74
2023/12/03 14:45:26;;;;;;;4.47;4.03;;;-1.20;99.90;;;;;;5010952;28;20563;-75
2023/12/03 14:47:53;;;;;;;4.85;3.05;;;-1.20;99.90;;;;;;5010968;28;20206;-73
2023/12/03 14:50:20;;;;;;;4.82;3.42;;;-1.30;99.90;;;;;;5010713;28;20215;-75
2023/12/03 14:52:46;;;;;;;5.78;3.97;;;-1.30;99.90;;;;;;5011783;28;20269;-75
2023/12/03 14:55:13;;;;;;;3.65;2.72;;;-1.40;99.90;;;;;;5010345;28;20206;-75
2023/12/03 14:57:40;;;;;;;5.55;4.30;;;-1.50;99.90;;;;;;5013688;28;20206;-75
2023/12/03 15:00:11;;;;;;;4.97;4.10;;;-1.60;99.90;;;;;;5014531;28;20698;-74
2023/12/03 15:02:41;;;;;;;6.15;2.88;;;-1.60;99.90;;;;;;5010417;28;20230;-74
2023/12/03 15:05:08;;;;;;;8.07;4.90;;;-1.70;99.90;;;;;;5010035;28;20214;-74
2023/12/03 15:07:35;;;;;;;4.22;3.03;;;-1.70;99.90;;;;;;5013786;28;20217;-74
2023/12/03 15:10:03;;;;;;;6.22;3.65;;;-1.80;99.90;;;;;;5014336;28;20206;-75
2023/12/03 15:12:30;;;;;;;8.05;4.18;;;-1.90;99.90;;;;;;5013908;28;20253;-75
2023/12/03 15:14:57;;;;;;;3.88;2.97;;;-1.90;99.90;;;;;;5014649;28;20206;-74
2023/12/03 15:17:24;;;;;;;5.22;3.50;;;-2.00;99.90;;;;;;5013317;28;20222;-74
2023/12/03 15:19:52;;;;;;;6.45;2.58;;;-2.00;99.90;;;;;;5013947;28;20214;-75
2023/12/03 15:22:19;;;;;;;9.18;3.80;;;-2.10;99.90;;;;;;5013877;28;20233;-75
2023/12/03 15:24:45;;;;;;;3.58;2.92;;;-2.20;99.90;;;;;;5017387;28;20601;-74
2023/12/03 15:27:12;;;;;;;5.00;3.80;;;-2.20;99.90;;;;;;5013734;28;20624;-74
2023/12/03 15:29:39;;;;;;;4.20;3.58;;;-2.30;99.90;;;;;;5013506;28;20209;-75
2023/12/03 15:32:06;;;;;;;5.65;3.58;;;-2.40;99.90;;;;;;5013665;28;20265;-73
2023/12/03 15:34:33;;;;;;;4.90;3.83;;;-2.50;99.90;;;;;;5013865;28;20692;-74
2023/12/03 15:37:01;;;;;;;4.32;2.65;;;-2.50;99.90;;;;;;5013294;28;20222;-75
2023/12/03 15:39:27;;;;;;;3.90;3.50;;;-2.60;99.90;;;;;;5011920;28;20218;-75
2023/12/03 15:41:54;;;;;;;6.85;5.07;;;-2.60;99.90;;;;;;5012343;28;20307;-74
2023/12/03 15:44:22;;;;;;;4.40;3.03;;;-2.70;99.90;;;;;;5008753;28;20217;-74
2023/12/03 15:46:48;;;;;;;4.28;3.50;;;-2.70;99.90;;;;;;5012892;28;20297;-74
2023/12/03 15:49:15;;;;;;;3.17;2.88;;;-2.80;99.90;;;;;;5013391;28;20213;-75
2023/12/03 15:51:42;;;;;;;5.40;3.17;;;-2.80;99.90;;;;;;5012194;28;20721;-75
2023/12/03 15:54:10;;;;;;;8.50;4.43;;;-2.90;99.90;;;;;;5013993;28;20215;-74
2023/12/03 15:56:36;;;;;;;3.95;3.38;;;-3.00;99.90;;;;;;5013359;28;20218;-75
2023/12/03 15:59:03;;;;;;;3.22;2.95;;;-3.00;99.90;;;;;;5013925;28;20261;-75
2023/12/03 16:01:30;;;;;;;5.85;4.88;;;-3.00;99.90;;;;;;5013116;28;20599;-75
2023/12/03 16:03:56;;;;;;;6.18;3.20;;;-3.00;99.90;;;;;;5013136;28;20210;-75
2023/12/03 16:06:23;;;;;;;4.80;3.15;;;-3.00;99.90;;;;;;5012719;28;20209;-75
2023/12/03 16:08:50;;;;;;;8.90;4.03;;;-3.00;99.90;;;;;;5012079;28;20218;-75
2023/12/03 16:11:18;;;;;;;5.43;3.90;;;-3.00;99.90;;;;;;5012801;28;20234;-75
2023/12/03 16:13:44;;;;;;;7.43;4.75;;;-3.10;99.90;;;;;;5011859;28;20218;-75
2023/12/03 16:16:11;;;;;;;5.13;3.17;;;-3.10;99.90;;;;;;5013098;28;20245;-75
2023/12/03 16:18:38;;;;;;;5.18;3.85;;;-3.20;99.90;;;;;;5012101;28;20218;-75
2023/12/03 16:21:05;;;;;;;3.70;3.38;;;-3.20;99.90;;;;;;5012636;28;20594;-75
2023/12/03 16:23:31;;;;;;;7.13;2.95;;;-3.20;99.90;;;;;;5012912;28;20210;-74
2023/12/03 16:25:58;;;;;;;5.63;3.88;;;-3.30;99.90;;;;;;5012895;28;20213;-75
2023/12/03 16:28:26;;;;;;;5.07;3.85;;;-3.30;99.90;;;;;;5012895;28;20218;-74
2023/12/03 16:30:53;;;;;;;4.78;3.88;;;-3.40;99.90;;;;;;5010133;28;20234;-75
2023/12/03 16:33:20;;;;;;;4.47;4.07;;;-3.40;99.90;;;;;;5005442;28;20210;-75
2023/12/03 16:35:47;;;;;;;4.18;3.25;;;-3.60;99.90;;;;;;5007215;28;20211;-75
2023/12/03 16:38:13;;;;;;;5.38;3.25;;;-3.60;99.90;;;;;;5007758;28;20214;-75
2023/12/03 16:40:40;;;;;;;8.38;3.33;;;-3.70;99.90;;;;;;5007642;28;20223;-75
2023/12/03 16:43:07;;;;;;;6.40;3.53;;;-3.70;99.90;;;;;;5008195;28;20287;-75
2023/12/03 16:45:35;;;;;;;6.35;4.72;;;-3.80;99.90;;;;;;5008177;28;20209;-74
2023/12/03 16:48:02;;;;;;;5.30;3.20;;;-3.80;99.90;;;;;;5007773;28;20210;-75
2023/12/03 16:50:29;;;;;;;7.00;4.90;;;-3.90;99.90;;;;;;5008193;28;20223;-75
2023/12/03 16:52:58;;;;;;;6.25;4.45;;;-4.00;99.90;;;;;;5007861;28;20266;-75
2023/12/03 16:55:25;;;;;;;4.90;3.80;;;-4.10;99.90;;;;;;5007492;28;20213;-75
2023/12/03 16:57:52;;;;;;;7.00;6.05;;;-4.10;99.90;;;;;;5007697;28;20334;-75
2023/12/03 17:00:20;;;;;;;7.15;4.50;;;-4.20;99.90;;;;;;5007845;28;20214;-75
2023/12/03 17:02:48;;;;;;;4.95;3.53;;;-4.20;99.90;;;;;;5008188;28;20644;-75
2023/12/03 17:05:15;;;;;;;5.70;3.58;;;-4.30;99.90;;;;;;5006353;28;20209;-74
2023/12/03 17:07:41;;;;;;;7.40;3.67;;;-4.30;99.90;;;;;;5008679;28;20199;-75